Latest Coastal Weather Observations for Point Perpendicular

IDN60701

Issued at 4:52 pm EST Wednesday 28 September 2016 (issued every 10 minutes, with the page automatically refreshed every 10 minutes)

About coastal observations | Map of coastal stations | Coastal observations for NSW | Marine services | Other Formats
Station Details ID: 068151 Name: POINT PERPENDICULAR AWS Lat: -35.09 Lon: 150.80 Height: 85.0 m
Data from the previous 72 hours. | See also: Recent months at Point Perpendicular
Date/Time
EST
Temp
°C
Wind Pressure Rain since
9am
mm
Weather Cloud Vis
km
Sea
Height
m
Swell
Dir  Spd
kts
Gust
kts
hPa Trend Height
m
Period
s
Dir
28/04:30pm 15.7 ENE 9 12 1010.2 - 0.0 - - - - - - -
28/04:00pm 16.0 ENE 7 12 1010.6 - 0.0 - - - - - - -
28/03:30pm 16.6 E 8 13 1010.7 - 0.0 - - - - - - -
28/03:00pm 16.7 ESE 8 13 1011.1 - 0.0 - - - - - - -
28/02:30pm 17.2 ESE 7 12 1011.7 - 0.0 - - - - - - -
28/02:00pm 17.2 E 6 10 1012.2 - 0.0 - - - - - - -
28/01:30pm 17.4 ESE 6 9 1012.6 - 0.0 - - - - - - -
28/01:00pm 16.9 SE 6 10 1013.0 - 0.0 - - - - - - -
28/12:30pm 16.9 SE 5 10 1012.9 - 0.0 - - - - - - -
28/12:00pm 17.1 SSE 5 9 1013.3 - 0.0 - - - - - - -
28/11:30am 16.6 SE 5 9 1013.6 - 0.0 - - - - - - -
28/11:00am 16.6 SSE 4 8 1013.8 - 0.0 - - - - - - -
28/10:30am 15.9 S 5 8 1014.0 - 0.0 - - - - - - -
28/10:00am 15.4 SSE 5 8 1014.2 - 0.0 - - - - - - -
28/09:30am 15.2 SW 3 8 1014.5 - 0.0 - - - - - - -
28/09:00am 14.4 WSW 2 5 1014.6 - 1.2 - - - - - - -
28/08:30am 13.3 WNW 3 7 1014.6 - 1.2 - - - - - - -
28/08:00am 12.7 WNW 3 6 1014.6 - 1.2 - - - - - - -
28/07:30am 11.9 WNW 3 5 1014.4 - 1.2 - - - - - - -
28/07:00am 11.2 WNW 4 6 1014.1 - 1.2 - - - - - - -
28/06:30am 10.0 WNW 3 5 1013.8 - 1.2 - - - - - - -
28/06:00am 9.7 WNW 4 6 1013.6 - 1.2 - - - - - - -
28/05:30am 9.5 WNW 4 6 1013.2 - 1.2 - - - - - - -
28/05:00am 9.7 WNW 5 7 1013.1 - 1.2 - - - - - - -
28/04:30am 9.7 WNW 4 6 1012.8 - 1.2 - - - - - - -
28/04:00am 10.1 WNW 4 5 1012.6 - 1.2 - - - - - - -
28/03:30am 10.0 WNW 6 8 1012.5 - 1.2 - - - - - - -
28/03:00am 10.4 W 3 4 1012.5 - 1.2 - - - - - - -
28/02:30am 11.6 W 2 4 1012.4 - 1.2 - - - - - - -
28/02:00am 12.0 WSW 3 5 1012.3 - 1.2 - - - - - - -
28/01:30am 12.4 W 2 4 1012.4 - 1.2 - - - - - - -
28/01:00am 12.6 W 2 6 1012.5 - 1.2 - - - - - - -
28/12:30am 12.9 WNW 3 7 1012.6 - 1.2 - - - - - - -
28/12:00am 12.9 W 2 4 1012.5 - 1.2 - - - - - - -
 
Date/Time
EST
Temp
°C
Wind Pressure Rain since
9am
mm
Weather Cloud Vis
km
Sea
Height
m
Swell
Dir  Spd
kts
Gust
kts
hPa Trend Height
m
Period
s
Dir
27/11:30pm 13.0 WSW 3 6 1012.5 - 1.2 - - - - - - -
27/11:00pm 13.1 W 3 8 1012.4 - 1.2 - - - - - - -
27/10:30pm 13.5 WSW 3 8 1012.4 - 1.2 - - - - - - -
27/10:00pm 13.5 WNW 4 5 1012.4 - 1.2 - - - - - - -
27/09:30pm 13.2 W 2 4 1012.3 - 1.2 - - - - - - -
27/09:00pm 13.7 SW 4 7 1012.4 - 0.8 Rain - - - - - -
27/08:30pm 13.8 WSW 3 6 1012.1 - 0.4 - - - - - - -
27/08:00pm 14.4 WSW 4 6 1012.0 - 0.4 - - - - - - -
27/07:30pm 15.0 SW 5 8 1011.8 - 0.4 - - - - - - -
27/07:00pm 15.0 SW 7 12 1011.3 - 0.4 - - - - - - -
27/06:30pm 14.9 SSW 9 13 1010.6 - 0.4 - - - - - - -
27/06:00pm 15.0 SSW 9 15 1010.0 - 0.4 - - - - - - -
27/05:30pm 15.1 SSW 9 13 1009.8 - 0.4 - - - - - - -
27/05:00pm 15.3 SSW 9 14 1009.4 - 0.4 - - - - - - -
27/04:30pm 15.0 SW 6 12 1009.0 - 0.4 - - - - - - -
27/04:00pm 14.7 SSW 9 14 1008.4 - 0.4 - - - - - - -
27/03:30pm 14.4 S 10 17 1008.0 - 0.4 - - - - - - -
27/03:00pm 14.2 SSW 12 23 1007.2 - 0.4 - - - - - - -
27/02:30pm 14.0 S 11 18 1007.0 - 0.4 - - - - - - -
27/02:00pm 13.6 S 14 23 1006.4 - 0.4 - - - - - - -
27/01:50pm 13.5 S 15 27 1006.3 - 0.2 - - - - - - -
27/01:30pm 15.1 W 8 17 1006.3 - 0.0 - - - - - - -
27/01:00pm 17.6 W 8 13 1005.8 - 0.0 - - - - - - -
27/12:30pm 17.5 W 7 14 1006.0 - 0.0 - - - - - - -
27/12:00pm 17.4 W 7 12 1006.0 - 0.0 - - - - - - -
27/11:30am 17.1 WNW 9 21 1006.5 - 0.0 - - - - - - -
27/11:00am 17.1 WNW 12 24 1006.7 - 0.0 - - - - - - -
27/10:30am 16.7 WNW 6 13 1007.7 - 0.0 - - - - - - -
27/10:00am 15.6 NNW 5 9 1008.2 - 0.0 - - - - - - -
27/09:30am 15.2 NW 6 10 1008.3 - 0.0 - - - - - - -
27/09:00am 16.1 NNW 6 10 1008.4 - 0.0 - - - - - - -
27/08:30am 14.1 N 5 11 1008.7 - 0.0 - - - - - - -
27/08:00am 13.5 NNW 7 10 1008.6 - 0.0 - - - - - - -
27/07:30am 12.9 NW 8 11 1009.0 - 0.0 - - - - - - -
27/07:00am 12.3 NW 7 10 1009.3 - 0.0 - - - - - - -
27/06:30am 12.1 NW 7 10 1009.5 - 0.0 - - - - - - -
27/06:00am 11.6 NNW 6 8 1009.5 - 0.0 - - - - - - -
27/05:30am 12.4 NW 7 9 1009.6 - 0.0 - - - - - - -
27/05:00am 11.6 NW 7 8 1009.7 - 0.0 - - - - - - -
27/04:30am 11.1 NNW 5 6 1009.8 - 0.0 - - - - - - -
27/04:00am 10.9 NNW 5 6 1010.1 - 0.0 - - - - - - -
27/03:30am 11.0 NW 7 8 1010.1 - 0.0 - - - - - - -
27/03:00am 11.9 NW 4 6 1010.1 - 0.0 - - - - - - -
27/02:30am 13.0 WNW 5 7 1010.5 - 0.0 - - - - - - -
27/02:00am 13.0 W 2 3 1010.8 - 0.0 - - - - - - -
27/01:30am 13.2 WSW 3 6 1011.2 - 0.0 - - - - - - -
27/01:00am 13.3 W 3 6 1011.2 - 0.0 - - - - - - -
27/12:30am 13.1 WSW 3 7 1011.4 - 0.0 - - - - - - -
27/12:00am 13.2 WSW 3 6 1011.7 - 0.0 - - - - - - -
 
Date/Time
EST
Temp
°C
Wind Pressure Rain since
9am
mm
Weather Cloud Vis
km
Sea
Height
m
Swell
Dir  Spd
kts
Gust
kts
hPa Trend Height
m
Period
s
Dir
26/11:30pm 13.3 W 3 8 1012.0 - 0.0 - - - - - - -
26/11:00pm 13.0 W 2 4 1012.1 - 0.0 - - - - - - -
26/10:30pm 12.9 W 2 4 1012.3 - 0.0 - - - - - - -
26/10:00pm 13.4 W 2 4 1012.3 - 0.0 - - - - - - -
26/09:30pm 13.4 W 3 5 1012.1 - 0.0 - - - - - - -
26/09:00pm 14.1 WSW 4 8 1011.8 - 0.0 - - - - - - -
26/08:30pm 14.4 W 2 6 1011.8 - 0.0 - - - - - - -
26/08:00pm 14.4 WSW 2 3 1011.7 - 0.0 - - - - - - -
26/07:30pm 14.2 SW 3 4 1011.5 - 0.0 - - - - - - -
26/07:00pm 14.7 SSW 3 4 1011.3 - 0.0 - - - - - - -
26/06:30pm 13.6 SSE 2 2 1011.1 - 0.0 - - - - - - -
26/06:00pm 14.1 ESE 1 2 1010.6 - 0.0 - - - - - - -
26/05:30pm 14.5 E 2 3 1010.3 - 0.0 - - - - - - -
26/05:00pm 14.5 E 3 5 1010.0 - 0.0 - - - - - - -
26/04:30pm 15.4 SSE 4 6 1010.0 - 0.0 - - - - - - -
26/04:00pm 16.2 SSE 4 7 1009.9 - 0.0 - - - - - - -
26/03:30pm 15.4 S 5 7 1010.0 - 0.0 - - - - - - -
26/03:00pm 15.5 S 5 9 1009.8 - 0.0 - - - - - - -
26/02:30pm 16.1 SSE 7 10 1009.6 - 0.0 - - - - - - -
26/02:00pm 15.7 SE 8 11 1009.5 - 0.0 - - - - - - -
26/01:30pm 15.8 SE 8 11 1009.9 - 0.0 - - - - - - -
26/01:00pm 16.1 SSE 8 11 1010.1 - 0.0 - - - - - - -
26/12:30pm 15.8 S 8 13 1010.6 - 0.0 - - - - - - -
26/12:00pm 16.0 SSW 6 11 1011.1 - 0.0 - - - - - - -
26/11:30am 15.1 SSW 5 8 1011.4 - 0.0 - - - - - - -
26/11:00am 15.0 SW 5 9 1011.9 - 0.0 - - - - - - -
26/10:30am 14.7 WSW 3 7 1012.3 - 0.0 - - - - - - -
26/10:00am 14.8 W 3 6 1012.6 - 0.0 - - - - - - -
26/09:30am 14.4 W 3 7 1012.8 - 0.0 - - - - - - -
26/09:00am 13.7 W 3 4 1013.1 - 3.8 - - - - - - -
26/08:30am 13.0 W 3 8 1013.1 - 3.8 - - - - - - -
26/08:00am 11.8 WNW 3 6 1012.9 - 3.8 - - - - - - -
26/07:30am 12.3 W 3 5 1012.6 - 3.8 - - - - - - -
26/07:00am 11.8 W 3 6 1012.7 - 3.8 - - - - - - -
26/06:30am 11.6 W 3 3 1012.7 - 3.8 - - - - - - -
26/06:00am 11.6 W 2 4 1012.5 - 3.8 Recent precip. - - - - - -
26/05:30am 11.8 NW 4 7 1012.5 - 3.8 - - - - - - -
26/05:00am 12.4 W 2 4 1012.3 - 3.6 - - - - - - -
26/04:30am 12.4 W 2 2 1012.3 - 3.6 - - - - - - -
26/04:00am 12.3 W 2 5 1012.2 - 3.6 - - - - - - -
26/03:30am 12.7 WSW 3 6 1012.0 - 3.6 - - - - - - -
26/03:00am 13.7 SSW 7 13 1011.7 - 3.6 - - - - - - -
26/02:30am 13.7 SSW 7 11 1011.6 - 3.6 - - - - - - -
26/02:00am 13.8 SSW 7 12 1011.7 - 3.6 - - - - - - -
26/01:30am 14.0 SSW 6 10 1011.8 - 3.6 - - - - - - -
26/01:00am 13.8 SSW 8 12 1011.9 - 3.6 - - - - - - -
26/12:30am 13.8 SSW 8 13 1011.8 - 3.6 - - - - - - -
26/12:00am 13.1 SSW 9 16 1011.8 - 3.6 Recent precip. - - - - - -
 
Date/Time
EST
Temp
°C
Wind Pressure Rain since
9am
mm
Weather Cloud Vis
km
Sea
Height
m
Swell
Dir  Spd
kts
Gust
kts
hPa Trend Height
m
Period
s
Dir
25/11:30pm 13.7 SSW 11 15 1012.0 - 3.4 - - - - - - -
25/11:00pm 13.8 SSW 10 16 1011.4 - 3.2 - - - - - - -
25/10:30pm 13.9 S 9 15 1011.0 - 3.2 - - - - - - -
25/10:00pm 13.8 SSW 10 17 1011.2 - 3.2 - - - - - - -
25/09:30pm 14.6 S 9 16 1011.2 - 3.2 - - - - - - -
25/09:00pm 14.6 S 11 18 1010.6 - 3.2 Recent precip. - - - - - -
25/08:30pm 14.2 S 10 19 1010.3 - 3.2 - - - - - - -
25/08:00pm 14.5 S 10 17 1010.4 - 2.6 - - - - - - -
25/07:30pm 14.8 S 10 15 1009.9 - 2.4 - - - - - - -
25/07:00pm 14.8 S 11 18 1009.2 - 2.4 - - - - - - -
25/06:30pm 15.1 S 11 17 1008.7 - 2.4 - - - - - - -
25/06:00pm 15.2 S 12 17 1008.4 - 2.4 Recent precip. - - - - - -
25/05:30pm 15.1 S 10 16 1008.3 - 2.4 - - - - - - -
25/05:00pm 14.9 S 11 18 1007.9 - 1.2 - - - - - - -

Other Formats:

Comma delimited format used in spreadsheet applications
http://www.bom.gov.au/fwo/IDN60701/IDN60701.95940.axf

JavaScript Object Notation format (JSON) in row-major order
http://www.bom.gov.au/fwo/IDN60701/IDN60701.95940.json